Terminal Aerodrome Forecast
Issued by NWS Dodge City, KS

Home | Current Version | Previous Version | Graphics & Text | Print | Product List | Glossary Off
Versions: 1 2 3 4 5 6 7 8 9 10 11 12 13 14 15 16 17 18

000
FTUS43 KDDC 260934 AAA
TAFDDC
TAF AMD
KDDC 260934Z 2610/2706 17004KT P6SM OVC060
     FM261200 20008KT P6SM OVC030
     FM261500 17006KT P6SM BKN050
     FM262100 09005KT P6SM VCTS BKN070CB
     FM270300 10007KT P6SM VCTS SCT060CB=

USA.gov is the U.S. government's official web portal to all federal, state and local government web resources and services.